Dodson, Oregon
Current Conditions -  °F | °C
As of 4:59 AM on Wednesday 22 Oct 2014 (Local Time) from K4S2 Reporting Station
Drizzle Drizzle  
Wind Chill: 50°   Ceiling: 1100
Heat Index: 50°   Visibility: 5mi
Dew Point: 48°   Wind: 0mph
Humidity: 94%   Direction: NA
Pressure: 29.85"   Gusts: NA
Location:  45.6281°N, 121.806°W
Report Text: K4S2 221159Z AUTO 00000KT 5SM DZ BKN011 BKN046 OVC065 10/09 A2985 RMK AO2 P0002 SLPNO
Loading
Personal Weather Stations






























Interactive Weather Map New forecast layout! Learn more

10-Day Weather Forecast

Advertisements
Track Severe Weather on mobile